メインページ
METAR-TAF:

METAR-TAF

空港 :

Farmingdale, ニューヨーク, アメリカ合衆国

緯度: 40-44-03N, 経度: 073-25-01W, 海抜: 24m

現時点の気象観測

当レポートは44分前の03:02(UTC)に作成
南東の風 10kt
気温 23°C
湿度 78%
気圧 1020 hPa
視程: 16.1km
高度1400ftの千切れ雲あり

METAR: KFRG 070302Z AUTO 13010KT 10SM BKN014 23/19 A3013 RMK AO2 T02280189

時間: 23:46 (03:46 UTC)


TAF: 見つかりません

4,000以上の空港の気象観測と天気予報(METAR報とTAF報)

利用可能な観測所は地図上に黄色い丸と赤い丸で示す。

丸の上にカーソルを重ねると観測所名を参照できる。

次にクリックすると気象観測と天気予報を参照できる。

マップの切り替え:黒色「×」印の緑ボタンをクリックして拡大、「-」印の緑ボタンをクリックして縮小、緑色の三角印をクリックして隣りの地図に切り替え


METAR-TAF: